Terminal Aerodrome Forecast
Issued by NWS

Home | Current Version | Previous Version | Text Only | Print | Product List | Glossary On
Versions: 1 2 3 4 5 6 7 8 9 10 11 12 13
000
FTUS46 KMTR 301729
TAFSTS
TAF
KSTS 301729Z 3018/3118 18006KT P6SM FEW150
     FM302200 18011KT P6SM FEW150
     FM310500 VRB03KT P6SM OVC006=

USA.gov is the U.S. government's official web portal to all federal, state and local government web resources and services.